sensor_id;sensor_type;location;lat;lon;timestamp;P1;durP1;ratioP1;P2;durP2;ratioP2
60641;SDS011;46837;52.446;-1.930;2024-02-21T00:00:07;14.02;;;3.16;;
60641;SDS011;46837;52.446;-1.930;2024-02-21T00:01:07;17.74;;;4.14;;
60641;SDS011;46837;52.446;-1.930;2024-02-21T00:02:07;20.90;;;4.14;;
60641;SDS011;46837;52.446;-1.930;2024-02-21T00:03:07;19.16;;;2.84;;
60641;SDS011;46837;52.446;-1.930;2024-02-21T00:04:07;20.34;;;3.28;;
60641;SDS011;46837;52.446;-1.930;2024-02-21T00:05:07;13.72;;;3.14;;
60641;SDS011;46837;52.446;-1.930;2024-02-21T00:06:07;15.52;;;3.24;;
60641;SDS011;46837;52.446;-1.930;2024-02-21T00:07:07;11.82;;;2.78;;
60641;SDS011;46837;52.446;-1.930;2024-02-21T00:08:07;15.84;;;3.66;;
60641;SDS011;46837;52.446;-1.930;2024-02-21T00:09:07;15.68;;;3.24;;
60641;SDS011;46837;52.446;-1.930;2024-02-21T00:10:07;19.42;;;3.12;;
60641;SDS011;46837;52.446;-1.930;2024-02-21T00:11:07;18.36;;;2.94;;
60641;SDS011;46837;52.446;-1.930;2024-02-21T00:12:07;21.42;;;3.14;;
60641;SDS011;46837;52.446;-1.930;2024-02-21T00:13:07;13.00;;;3.82;;
60641;SDS011;46837;52.446;-1.930;2024-02-21T00:14:07;14.88;;;3.46;;
60641;SDS011;46837;52.446;-1.930;2024-02-21T00:15:07;19.86;;;2.98;;
60641;SDS011;46837;52.446;-1.930;2024-02-21T00:16:07;13.94;;;2.62;;
60641;SDS011;46837;52.446;-1.930;2024-02-21T00:17:07;18.24;;;3.66;;
60641;SDS011;46837;52.446;-1.930;2024-02-21T00:18:07;15.82;;;3.32;;
60641;SDS011;46837;52.446;-1.930;2024-02-21T00:19:07;16.06;;;2.76;;
60641;SDS011;46837;52.446;-1.930;2024-02-21T00:20:07;18.88;;;4.42;;
60641;SDS011;46837;52.446;-1.930;2024-02-21T00:21:07;13.94;;;3.72;;
60641;SDS011;46837;52.446;-1.930;2024-02-21T00:22:07;13.22;;;2.58;;
60641;SDS011;46837;52.446;-1.930;2024-02-21T00:23:07;20.94;;;3.72;;
60641;SDS011;46837;52.446;-1.930;2024-02-21T00:24:07;20.64;;;3.24;;
60641;SDS011;46837;52.446;-1.930;2024-02-21T00:25:07;17.88;;;3.46;;
60641;SDS011;46837;52.446;-1.930;2024-02-21T00:26:07;19.04;;;3.98;;
60641;SDS011;46837;52.446;-1.930;2024-02-21T00:27:07;17.64;;;5.00;;
60641;SDS011;46837;52.446;-1.930;2024-02-21T00:28:07;13.26;;;2.82;;
60641;SDS011;46837;52.446;-1.930;2024-02-21T00:29:07;17.20;;;3.30;;
60641;SDS011;46837;52.446;-1.930;2024-02-21T00:30:07;13.16;;;4.54;;
60641;SDS011;46837;52.446;-1.930;2024-02-21T00:31:07;14.48;;;2.92;;
60641;SDS011;46837;52.446;-1.930;2024-02-21T00:32:07;18.22;;;4.76;;
60641;SDS011;46837;52.446;-1.930;2024-02-21T00:33:07;14.74;;;3.68;;
60641;SDS011;46837;52.446;-1.930;2024-02-21T00:34:07;16.58;;;3.48;;
60641;SDS011;46837;52.446;-1.930;2024-02-21T00:35:07;16.54;;;2.64;;
60641;SDS011;46837;52.446;-1.930;2024-02-21T00:36:07;12.60;;;3.24;;
60641;SDS011;46837;52.446;-1.930;2024-02-21T00:37:07;11.70;;;2.88;;
60641;SDS011;46837;52.446;-1.930;2024-02-21T00:38:07;11.62;;;2.50;;
60641;SDS011;46837;52.446;-1.930;2024-02-21T00:39:07;15.10;;;2.86;;
60641;SDS011;46837;52.446;-1.930;2024-02-21T00:40:07;19.24;;;3.02;;
60641;SDS011;46837;52.446;-1.930;2024-02-21T00:41:07;19.76;;;2.82;;
60641;SDS011;46837;52.446;-1.930;2024-02-21T00:42:07;12.20;;;2.30;;
60641;SDS011;46837;52.446;-1.930;2024-02-21T00:43:07;15.18;;;3.28;;
60641;SDS011;46837;52.446;-1.930;2024-02-21T00:44:07;12.96;;;2.34;;
60641;SDS011;46837;52.446;-1.930;2024-02-21T00:45:07;18.22;;;3.22;;
60641;SDS011;46837;52.446;-1.930;2024-02-21T00:46:07;16.10;;;3.68;;
60641;SDS011;46837;52.446;-1.930;2024-02-21T00:47:07;18.44;;;3.64;;
60641;SDS011;46837;52.446;-1.930;2024-02-21T00:48:07;17.68;;;4.22;;
60641;SDS011;46837;52.446;-1.930;2024-02-21T00:49:07;13.86;;;3.78;;
60641;SDS011;46837;52.446;-1.930;2024-02-21T00:50:07;17.56;;;3.36;;
60641;SDS011;46837;52.446;-1.930;2024-02-21T00:51:07;12.52;;;3.02;;
60641;SDS011;46837;52.446;-1.930;2024-02-21T00:52:07;18.74;;;3.62;;
60641;SDS011;46837;52.446;-1.930;2024-02-21T00:53:07;15.36;;;3.36;;
60641;SDS011;46837;52.446;-1.930;2024-02-21T00:54:07;15.26;;;3.60;;
60641;SDS011;46837;52.446;-1.930;2024-02-21T00:55:07;15.80;;;3.76;;
60641;SDS011;46837;52.446;-1.930;2024-02-21T00:56:07;12.56;;;3.42;;
60641;SDS011;46837;52.446;-1.930;2024-02-21T00:57:07;18.24;;;3.86;;
60641;SDS011;46837;52.446;-1.930;2024-02-21T00:58:07;13.80;;;3.56;;
60641;SDS011;46837;52.446;-1.930;2024-02-21T00:59:07;21.96;;;3.68;;
60641;SDS011;46837;52.446;-1.930;2024-02-21T01:00:07;10.94;;;3.04;;
60641;SDS011;46837;52.446;-1.930;2024-02-21T01:01:07;14.28;;;3.94;;
60641;SDS011;46837;52.446;-1.930;2024-02-21T01:02:07;8.68;;;3.72;;
60641;SDS011;46837;52.446;-1.930;2024-02-21T01:03:07;14.12;;;3.84;;
60641;SDS011;46837;52.446;-1.930;2024-02-21T01:04:07;20.16;;;4.36;;
60641;SDS011;46837;52.446;-1.930;2024-02-21T01:05:07;14.64;;;4.00;;
60641;SDS011;46837;52.446;-1.930;2024-02-21T01:06:07;15.84;;;4.76;;
60641;SDS011;46837;52.446;-1.930;2024-02-21T01:07:07;15.04;;;3.90;;
60641;SDS011;46837;52.446;-1.930;2024-02-21T01:08:07;17.90;;;3.92;;
60641;SDS011;46837;52.446;-1.930;2024-02-21T01:09:07;14.76;;;3.56;;
60641;SDS011;46837;52.446;-1.930;2024-02-21T01:10:07;25.58;;;4.70;;
60641;SDS011;46837;52.446;-1.930;2024-02-21T01:11:07;17.62;;;4.26;;
60641;SDS011;46837;52.446;-1.930;2024-02-21T01:12:07;18.76;;;4.68;;
60641;SDS011;46837;52.446;-1.930;2024-02-21T01:13:07;15.62;;;4.84;;
60641;SDS011;46837;52.446;-1.930;2024-02-21T01:14:07;19.18;;;4.74;;
60641;SDS011;46837;52.446;-1.930;2024-02-21T01:15:07;15.20;;;3.84;;
60641;SDS011;46837;52.446;-1.930;2024-02-21T01:16:07;18.00;;;5.00;;
60641;SDS011;46837;52.446;-1.930;2024-02-21T01:17:07;26.34;;;4.74;;
60641;SDS011;46837;52.446;-1.930;2024-02-21T01:18:07;17.20;;;4.68;;
60641;SDS011;46837;52.446;-1.930;2024-02-21T01:19:07;13.20;;;4.40;;
60641;SDS011;46837;52.446;-1.930;2024-02-21T01:20:07;16.92;;;4.72;;
60641;SDS011;46837;52.446;-1.930;2024-02-21T01:21:07;19.88;;;4.92;;
60641;SDS011;46837;52.446;-1.930;2024-02-21T01:22:07;21.96;;;5.62;;
60641;SDS011;46837;52.446;-1.930;2024-02-21T01:23:07;20.22;;;5.26;;
60641;SDS011;46837;52.446;-1.930;2024-02-21T01:24:07;19.06;;;4.64;;
60641;SDS011;46837;52.446;-1.930;2024-02-21T01:25:07;13.62;;;5.00;;
60641;SDS011;46837;52.446;-1.930;2024-02-21T01:26:07;20.94;;;5.96;;
60641;SDS011;46837;52.446;-1.930;2024-02-21T01:27:07;16.06;;;4.66;;
60641;SDS011;46837;52.446;-1.930;2024-02-21T01:28:07;29.52;;;6.72;;
60641;SDS011;46837;52.446;-1.930;2024-02-21T01:29:07;22.14;;;5.06;;
60641;SDS011;46837;52.446;-1.930;2024-02-21T01:30:07;21.38;;;5.12;;
60641;SDS011;46837;52.446;-1.930;2024-02-21T01:31:07;16.60;;;5.62;;
60641;SDS011;46837;52.446;-1.930;2024-02-21T01:32:07;19.66;;;5.36;;
60641;SDS011;46837;52.446;-1.930;2024-02-21T01:33:07;19.00;;;6.00;;
60641;SDS011;46837;52.446;-1.930;2024-02-21T01:34:07;21.20;;;4.88;;
60641;SDS011;46837;52.446;-1.930;2024-02-21T01:35:07;14.90;;;5.38;;
60641;SDS011;46837;52.446;-1.930;2024-02-21T01:36:08;21.70;;;5.82;;
60641;SDS011;46837;52.446;-1.930;2024-02-21T01:37:08;14.26;;;5.06;;
60641;SDS011;46837;52.446;-1.930;2024-02-21T01:38:07;17.22;;;4.38;;
60641;SDS011;46837;52.446;-1.930;2024-02-21T01:39:07;23.92;;;5.14;;
60641;SDS011;46837;52.446;-1.930;2024-02-21T01:40:07;21.26;;;5.66;;
60641;SDS011;46837;52.446;-1.930;2024-02-21T01:41:07;14.80;;;4.38;;
60641;SDS011;46837;52.446;-1.930;2024-02-21T01:42:07;23.12;;;6.24;;
60641;SDS011;46837;52.446;-1.930;2024-02-21T01:44:07;18.88;;;4.46;;
60641;SDS011;46837;52.446;-1.930;2024-02-21T01:45:07;21.32;;;5.70;;
60641;SDS011;46837;52.446;-1.930;2024-02-21T01:46:07;16.72;;;4.78;;
60641;SDS011;46837;52.446;-1.930;2024-02-21T01:47:07;16.14;;;6.16;;
60641;SDS011;46837;52.446;-1.930;2024-02-21T01:48:07;19.72;;;5.74;;
60641;SDS011;46837;52.446;-1.930;2024-02-21T01:49:07;17.44;;;4.64;;
60641;SDS011;46837;52.446;-1.930;2024-02-21T01:50:07;18.26;;;5.10;;
60641;SDS011;46837;52.446;-1.930;2024-02-21T01:51:07;15.84;;;5.30;;
60641;SDS011;46837;52.446;-1.930;2024-02-21T01:52:07;11.56;;;4.80;;
60641;SDS011;46837;52.446;-1.930;2024-02-21T01:53:07;15.18;;;5.04;;
60641;SDS011;46837;52.446;-1.930;2024-02-21T01:54:07;16.90;;;4.60;;
60641;SDS011;46837;52.446;-1.930;2024-02-21T01:55:07;17.34;;;4.44;;
60641;SDS011;46837;52.446;-1.930;2024-02-21T01:56:07;19.74;;;4.04;;
60641;SDS011;46837;52.446;-1.930;2024-02-21T01:57:07;19.74;;;4.96;;
60641;SDS011;46837;52.446;-1.930;2024-02-21T01:58:07;17.84;;;4.88;;
60641;SDS011;46837;52.446;-1.930;2024-02-21T01:59:07;11.94;;;4.00;;
60641;SDS011;46837;52.446;-1.930;2024-02-21T02:00:07;13.36;;;5.42;;
60641;SDS011;46837;52.446;-1.930;2024-02-21T02:01:07;18.20;;;4.86;;
60641;SDS011;46837;52.446;-1.930;2024-02-21T02:02:07;9.92;;;3.56;;
60641;SDS011;46837;52.446;-1.930;2024-02-21T02:03:07;15.52;;;3.96;;
60641;SDS011;46837;52.446;-1.930;2024-02-21T02:04:07;12.14;;;3.82;;
60641;SDS011;46837;52.446;-1.930;2024-02-21T02:05:07;12.06;;;3.50;;
60641;SDS011;46837;52.446;-1.930;2024-02-21T02:06:07;15.02;;;3.60;;
60641;SDS011;46837;52.446;-1.930;2024-02-21T02:07:07;12.90;;;3.24;;
60641;SDS011;46837;52.446;-1.930;2024-02-21T02:08:07;10.24;;;2.60;;
60641;SDS011;46837;52.446;-1.930;2024-02-21T02:09:07;11.44;;;3.56;;
60641;SDS011;46837;52.446;-1.930;2024-02-21T02:10:07;10.44;;;2.80;;
60641;SDS011;46837;52.446;-1.930;2024-02-21T02:11:07;12.18;;;3.12;;
60641;SDS011;46837;52.446;-1.930;2024-02-21T02:12:07;11.22;;;3.58;;
60641;SDS011;46837;52.446;-1.930;2024-02-21T02:13:07;6.24;;;2.00;;
60641;SDS011;46837;52.446;-1.930;2024-02-21T02:14:07;7.50;;;2.42;;
60641;SDS011;46837;52.446;-1.930;2024-02-21T02:15:07;4.92;;;2.06;;
60641;SDS011;46837;52.446;-1.930;2024-02-21T02:16:07;5.96;;;1.94;;
60641;SDS011;46837;52.446;-1.930;2024-02-21T02:17:07;9.88;;;2.20;;
60641;SDS011;46837;52.446;-1.930;2024-02-21T02:18:07;4.84;;;1.94;;
60641;SDS011;46837;52.446;-1.930;2024-02-21T02:19:07;4.20;;;1.50;;
60641;SDS011;46837;52.446;-1.930;2024-02-21T02:20:07;4.28;;;1.72;;
60641;SDS011;46837;52.446;-1.930;2024-02-21T02:21:09;5.64;;;1.52;;
60641;SDS011;46837;52.446;-1.930;2024-02-21T02:22:10;4.58;;;1.60;;
60641;SDS011;46837;52.446;-1.930;2024-02-21T02:24:07;4.74;;;2.72;;
60641;SDS011;46837;52.446;-1.930;2024-02-21T02:25:07;4.62;;;1.62;;
60641;SDS011;46837;52.446;-1.930;2024-02-21T02:26:08;3.88;;;1.26;;
60641;SDS011;46837;52.446;-1.930;2024-02-21T02:27:07;9.52;;;2.00;;
60641;SDS011;46837;52.446;-1.930;2024-02-21T02:28:07;3.30;;;0.70;;
60641;SDS011;46837;52.446;-1.930;2024-02-21T02:29:07;2.64;;;0.88;;
60641;SDS011;46837;52.446;-1.930;2024-02-21T02:30:07;5.12;;;1.46;;
60641;SDS011;46837;52.446;-1.930;2024-02-21T02:31:07;4.52;;;1.18;;
60641;SDS011;46837;52.446;-1.930;2024-02-21T02:32:08;2.70;;;1.00;;
60641;SDS011;46837;52.446;-1.930;2024-02-21T02:33:07;4.48;;;1.02;;
60641;SDS011;46837;52.446;-1.930;2024-02-21T02:34:07;3.40;;;1.36;;
60641;SDS011;46837;52.446;-1.930;2024-02-21T02:35:07;3.28;;;0.88;;
60641;SDS011;46837;52.446;-1.930;2024-02-21T02:36:07;3.62;;;0.92;;
60641;SDS011;46837;52.446;-1.930;2024-02-21T02:37:07;3.16;;;1.24;;
60641;SDS011;46837;52.446;-1.930;2024-02-21T02:38:07;5.66;;;0.96;;
60641;SDS011;46837;52.446;-1.930;2024-02-21T02:39:07;4.98;;;0.96;;
60641;SDS011;46837;52.446;-1.930;2024-02-21T02:40:07;3.02;;;0.92;;
60641;SDS011;46837;52.446;-1.930;2024-02-21T02:41:07;1.78;;;1.10;;
60641;SDS011;46837;52.446;-1.930;2024-02-21T02:42:07;2.66;;;0.88;;
60641;SDS011;46837;52.446;-1.930;2024-02-21T02:43:07;3.66;;;1.00;;
60641;SDS011;46837;52.446;-1.930;2024-02-21T02:44:07;0.92;;;0.62;;
60641;SDS011;46837;52.446;-1.930;2024-02-21T02:45:07;0.92;;;0.72;;
60641;SDS011;46837;52.446;-1.930;2024-02-21T02:46:07;1.38;;;0.68;;
60641;SDS011;46837;52.446;-1.930;2024-02-21T02:47:08;1.52;;;0.56;;
60641;SDS011;46837;52.446;-1.930;2024-02-21T02:48:07;0.72;;;0.54;;
60641;SDS011;46837;52.446;-1.930;2024-02-21T02:49:07;1.22;;;0.56;;
60641;SDS011;46837;52.446;-1.930;2024-02-21T02:50:07;2.74;;;0.78;;
60641;SDS011;46837;52.446;-1.930;2024-02-21T02:51:07;4.32;;;0.94;;
60641;SDS011;46837;52.446;-1.930;2024-02-21T02:52:07;1.08;;;0.68;;
60641;SDS011;46837;52.446;-1.930;2024-02-21T02:53:07;2.42;;;0.90;;
60641;SDS011;46837;52.446;-1.930;2024-02-21T02:54:07;1.22;;;0.52;;
60641;SDS011;46837;52.446;-1.930;2024-02-21T02:55:07;1.34;;;0.60;;
60641;SDS011;46837;52.446;-1.930;2024-02-21T02:56:07;2.38;;;0.60;;
60641;SDS011;46837;52.446;-1.930;2024-02-21T02:57:07;1.08;;;0.70;;
60641;SDS011;46837;52.446;-1.930;2024-02-21T02:58:07;0.74;;;0.74;;
60641;SDS011;46837;52.446;-1.930;2024-02-21T02:59:07;3.60;;;0.80;;
60641;SDS011;46837;52.446;-1.930;2024-02-21T03:00:07;1.02;;;0.60;;
60641;SDS011;46837;52.446;-1.930;2024-02-21T03:01:07;3.98;;;0.62;;
60641;SDS011;46837;52.446;-1.930;2024-02-21T03:02:07;1.40;;;0.68;;
60641;SDS011;46837;52.446;-1.930;2024-02-21T03:03:07;2.02;;;0.62;;
60641;SDS011;46837;52.446;-1.930;2024-02-21T03:04:07;4.80;;;0.76;;
60641;SDS011;46837;52.446;-1.930;2024-02-21T03:06:07;2.22;;;0.60;;
60641;SDS011;46837;52.446;-1.930;2024-02-21T03:07:07;1.56;;;0.60;;
60641;SDS011;46837;52.446;-1.930;2024-02-21T03:08:07;2.10;;;0.86;;
60641;SDS011;46837;52.446;-1.930;2024-02-21T03:09:09;4.30;;;0.98;;
60641;SDS011;46837;52.446;-1.930;2024-02-21T03:10:07;0.60;;;0.60;;
60641;SDS011;46837;52.446;-1.930;2024-02-21T03:11:07;3.66;;;0.62;;
60641;SDS011;46837;52.446;-1.930;2024-02-21T03:12:07;1.30;;;0.52;;
60641;SDS011;46837;52.446;-1.930;2024-02-21T03:13:07;2.88;;;0.58;;
60641;SDS011;46837;52.446;-1.930;2024-02-21T03:14:07;1.20;;;0.50;;
60641;SDS011;46837;52.446;-1.930;2024-02-21T03:15:07;1.16;;;0.62;;
60641;SDS011;46837;52.446;-1.930;2024-02-21T03:16:07;1.26;;;0.60;;
60641;SDS011;46837;52.446;-1.930;2024-02-21T03:17:07;2.02;;;0.62;;
60641;SDS011;46837;52.446;-1.930;2024-02-21T03:18:07;1.40;;;0.60;;
60641;SDS011;46837;52.446;-1.930;2024-02-21T03:19:07;3.18;;;1.00;;
60641;SDS011;46837;52.446;-1.930;2024-02-21T03:20:07;1.88;;;0.62;;
60641;SDS011;46837;52.446;-1.930;2024-02-21T03:21:07;0.84;;;0.60;;
60641;SDS011;46837;52.446;-1.930;2024-02-21T03:22:07;1.82;;;0.94;;
60641;SDS011;46837;52.446;-1.930;2024-02-21T03:23:07;2.82;;;0.40;;
60641;SDS011;46837;52.446;-1.930;2024-02-21T03:24:07;1.82;;;0.54;;
60641;SDS011;46837;52.446;-1.930;2024-02-21T03:25:07;5.62;;;0.74;;
60641;SDS011;46837;52.446;-1.930;2024-02-21T03:26:07;2.60;;;0.68;;
60641;SDS011;46837;52.446;-1.930;2024-02-21T03:27:07;1.14;;;0.48;;
60641;SDS011;46837;52.446;-1.930;2024-02-21T03:28:07;2.76;;;0.44;;
60641;SDS011;46837;52.446;-1.930;2024-02-21T03:29:07;4.82;;;0.74;;
60641;SDS011;46837;52.446;-1.930;2024-02-21T03:30:07;1.44;;;0.70;;
60641;SDS011;46837;52.446;-1.930;2024-02-21T03:31:07;2.42;;;0.76;;
60641;SDS011;46837;52.446;-1.930;2024-02-21T03:32:07;1.36;;;0.80;;
60641;SDS011;46837;52.446;-1.930;2024-02-21T03:33:07;0.92;;;0.60;;
60641;SDS011;46837;52.446;-1.930;2024-02-21T03:34:07;1.56;;;0.90;;
60641;SDS011;46837;52.446;-1.930;2024-02-21T03:35:07;0.84;;;0.42;;
60641;SDS011;46837;52.446;-1.930;2024-02-21T03:36:07;4.32;;;0.56;;
60641;SDS011;46837;52.446;-1.930;2024-02-21T03:37:07;3.08;;;0.62;;
60641;SDS011;46837;52.446;-1.930;2024-02-21T03:38:07;2.54;;;1.18;;
60641;SDS011;46837;52.446;-1.930;2024-02-21T03:39:07;4.32;;;1.28;;
60641;SDS011;46837;52.446;-1.930;2024-02-21T03:40:09;0.86;;;0.84;;
60641;SDS011;46837;52.446;-1.930;2024-02-21T03:41:07;2.00;;;0.56;;
60641;SDS011;46837;52.446;-1.930;2024-02-21T03:42:07;2.02;;;0.56;;
60641;SDS011;46837;52.446;-1.930;2024-02-21T03:43:07;1.44;;;0.54;;
60641;SDS011;46837;52.446;-1.930;2024-02-21T03:44:07;2.80;;;0.32;;
60641;SDS011;46837;52.446;-1.930;2024-02-21T03:45:07;2.94;;;0.82;;
60641;SDS011;46837;52.446;-1.930;2024-02-21T03:46:07;2.20;;;0.64;;
60641;SDS011;46837;52.446;-1.930;2024-02-21T03:47:07;2.42;;;0.40;;
60641;SDS011;46837;52.446;-1.930;2024-02-21T03:48:07;4.00;;;0.68;;
60641;SDS011;46837;52.446;-1.930;2024-02-21T03:49:07;2.48;;;0.64;;
60641;SDS011;46837;52.446;-1.930;2024-02-21T03:50:07;3.08;;;0.82;;
60641;SDS011;46837;52.446;-1.930;2024-02-21T03:51:07;0.60;;;0.40;;
60641;SDS011;46837;52.446;-1.930;2024-02-21T03:52:07;2.78;;;0.76;;
60641;SDS011;46837;52.446;-1.930;2024-02-21T03:53:07;0.64;;;0.64;;
60641;SDS011;46837;52.446;-1.930;2024-02-21T03:54:07;1.54;;;0.62;;
60641;SDS011;46837;52.446;-1.930;2024-02-21T03:55:07;2.38;;;0.62;;
60641;SDS011;46837;52.446;-1.930;2024-02-21T03:56:07;2.00;;;0.92;;
60641;SDS011;46837;52.446;-1.930;2024-02-21T03:57:07;1.52;;;0.92;;
60641;SDS011;46837;52.446;-1.930;2024-02-21T03:58:07;2.24;;;0.88;;
60641;SDS011;46837;52.446;-1.930;2024-02-21T03:59:07;1.40;;;0.64;;
60641;SDS011;46837;52.446;-1.930;2024-02-21T04:00:07;2.42;;;0.78;;
60641;SDS011;46837;52.446;-1.930;2024-02-21T04:01:07;1.86;;;0.86;;
60641;SDS011;46837;52.446;-1.930;2024-02-21T04:02:09;2.60;;;0.96;;
60641;SDS011;46837;52.446;-1.930;2024-02-21T04:03:07;3.54;;;1.02;;
60641;SDS011;46837;52.446;-1.930;2024-02-21T04:04:07;5.26;;;0.90;;
60641;SDS011;46837;52.446;-1.930;2024-02-21T04:05:07;2.70;;;0.74;;
60641;SDS011;46837;52.446;-1.930;2024-02-21T04:06:07;1.92;;;0.84;;
60641;SDS011;46837;52.446;-1.930;2024-02-21T04:07:09;2.08;;;0.86;;
60641;SDS011;46837;52.446;-1.930;2024-02-21T04:08:07;2.94;;;1.04;;
60641;SDS011;46837;52.446;-1.930;2024-02-21T04:09:07;3.10;;;0.70;;
60641;SDS011;46837;52.446;-1.930;2024-02-21T04:10:07;4.56;;;1.30;;
60641;SDS011;46837;52.446;-1.930;2024-02-21T04:11:07;4.52;;;1.16;;
60641;SDS011;46837;52.446;-1.930;2024-02-21T04:12:07;5.38;;;1.00;;
60641;SDS011;46837;52.446;-1.930;2024-02-21T04:13:07;5.78;;;1.26;;
60641;SDS011;46837;52.446;-1.930;2024-02-21T04:14:07;8.26;;;1.82;;
60641;SDS011;46837;52.446;-1.930;2024-02-21T04:15:07;2.08;;;1.28;;
60641;SDS011;46837;52.446;-1.930;2024-02-21T04:16:07;3.40;;;1.46;;
60641;SDS011;46837;52.446;-1.930;2024-02-21T04:17:07;5.32;;;1.72;;
60641;SDS011;46837;52.446;-1.930;2024-02-21T04:18:07;4.98;;;1.38;;
60641;SDS011;46837;52.446;-1.930;2024-02-21T04:19:07;7.08;;;1.72;;
60641;SDS011;46837;52.446;-1.930;2024-02-21T04:20:13;4.00;;;1.44;;
60641;SDS011;46837;52.446;-1.930;2024-02-21T04:21:07;4.00;;;1.50;;
60641;SDS011;46837;52.446;-1.930;2024-02-21T04:22:07;5.58;;;1.12;;
60641;SDS011;46837;52.446;-1.930;2024-02-21T04:23:07;10.92;;;1.44;;
60641;SDS011;46837;52.446;-1.930;2024-02-21T04:24:07;6.28;;;1.44;;
60641;SDS011;46837;52.446;-1.930;2024-02-21T04:25:07;7.02;;;1.22;;
60641;SDS011;46837;52.446;-1.930;2024-02-21T04:26:07;4.26;;;1.50;;
60641;SDS011;46837;52.446;-1.930;2024-02-21T04:27:07;2.92;;;1.70;;
60641;SDS011;46837;52.446;-1.930;2024-02-21T04:28:07;7.16;;;1.64;;
60641;SDS011;46837;52.446;-1.930;2024-02-21T04:29:07;4.86;;;1.80;;
60641;SDS011;46837;52.446;-1.930;2024-02-21T04:30:07;8.10;;;2.48;;
60641;SDS011;46837;52.446;-1.930;2024-02-21T04:31:07;3.90;;;2.08;;
60641;SDS011;46837;52.446;-1.930;2024-02-21T04:32:07;4.60;;;1.80;;
60641;SDS011;46837;52.446;-1.930;2024-02-21T04:33:07;6.30;;;1.72;;
60641;SDS011;46837;52.446;-1.930;2024-02-21T04:34:07;4.98;;;1.36;;
60641;SDS011;46837;52.446;-1.930;2024-02-21T04:35:07;10.52;;;1.36;;
60641;SDS011;46837;52.446;-1.930;2024-02-21T04:36:07;6.02;;;1.32;;
60641;SDS011;46837;52.446;-1.930;2024-02-21T04:37:07;8.94;;;1.86;;
60641;SDS011;46837;52.446;-1.930;2024-02-21T04:38:07;8.38;;;1.74;;
60641;SDS011;46837;52.446;-1.930;2024-02-21T04:39:07;8.48;;;1.52;;
60641;SDS011;46837;52.446;-1.930;2024-02-21T04:40:07;3.38;;;1.10;;
60641;SDS011;46837;52.446;-1.930;2024-02-21T04:41:07;3.06;;;1.54;;
60641;SDS011;46837;52.446;-1.930;2024-02-21T04:42:07;2.98;;;1.44;;
60641;SDS011;46837;52.446;-1.930;2024-02-21T04:43:07;4.98;;;1.56;;
60641;SDS011;46837;52.446;-1.930;2024-02-21T04:44:07;5.50;;;1.44;;
60641;SDS011;46837;52.446;-1.930;2024-02-21T04:45:07;7.80;;;1.78;;
60641;SDS011;46837;52.446;-1.930;2024-02-21T04:46:07;8.46;;;1.70;;
60641;SDS011;46837;52.446;-1.930;2024-02-21T04:47:07;6.40;;;1.98;;
60641;SDS011;46837;52.446;-1.930;2024-02-21T04:48:07;4.34;;;1.62;;
60641;SDS011;46837;52.446;-1.930;2024-02-21T04:49:07;5.72;;;1.60;;
60641;SDS011;46837;52.446;-1.930;2024-02-21T04:50:07;6.90;;;1.64;;
60641;SDS011;46837;52.446;-1.930;2024-02-21T04:51:07;2.84;;;1.24;;
60641;SDS011;46837;52.446;-1.930;2024-02-21T04:52:07;8.92;;;1.22;;
60641;SDS011;46837;52.446;-1.930;2024-02-21T04:53:07;3.02;;;1.50;;
60641;SDS011;46837;52.446;-1.930;2024-02-21T04:54:07;9.54;;;1.58;;
60641;SDS011;46837;52.446;-1.930;2024-02-21T04:55:07;6.08;;;1.16;;
60641;SDS011;46837;52.446;-1.930;2024-02-21T04:56:07;5.44;;;1.16;;
60641;SDS011;46837;52.446;-1.930;2024-02-21T04:57:07;9.96;;;1.40;;
60641;SDS011;46837;52.446;-1.930;2024-02-21T04:58:07;8.24;;;1.82;;
60641;SDS011;46837;52.446;-1.930;2024-02-21T04:59:07;2.22;;;1.22;;
60641;SDS011;46837;52.446;-1.930;2024-02-21T05:00:07;8.80;;;3.74;;
60641;SDS011;46837;52.446;-1.930;2024-02-21T05:01:07;7.14;;;1.24;;
60641;SDS011;46837;52.446;-1.930;2024-02-21T05:02:07;7.62;;;1.38;;
60641;SDS011;46837;52.446;-1.930;2024-02-21T05:03:07;8.44;;;2.40;;
60641;SDS011;46837;52.446;-1.930;2024-02-21T05:04:07;6.76;;;1.52;;
60641;SDS011;46837;52.446;-1.930;2024-02-21T05:05:07;3.44;;;1.02;;
60641;SDS011;46837;52.446;-1.930;2024-02-21T05:06:07;5.82;;;0.98;;
60641;SDS011;46837;52.446;-1.930;2024-02-21T05:07:07;3.90;;;1.18;;
60641;SDS011;46837;52.446;-1.930;2024-02-21T05:08:07;2.04;;;0.90;;
60641;SDS011;46837;52.446;-1.930;2024-02-21T05:09:07;4.70;;;1.02;;
60641;SDS011;46837;52.446;-1.930;2024-02-21T05:10:07;7.26;;;0.86;;
60641;SDS011;46837;52.446;-1.930;2024-02-21T05:11:07;4.08;;;1.14;;
60641;SDS011;46837;52.446;-1.930;2024-02-21T05:12:07;6.02;;;1.72;;
60641;SDS011;46837;52.446;-1.930;2024-02-21T05:13:07;4.42;;;0.86;;
60641;SDS011;46837;52.446;-1.930;2024-02-21T05:14:07;6.10;;;1.16;;
60641;SDS011;46837;52.446;-1.930;2024-02-21T05:15:07;7.74;;;1.16;;
60641;SDS011;46837;52.446;-1.930;2024-02-21T05:16:07;4.82;;;0.76;;
60641;SDS011;46837;52.446;-1.930;2024-02-21T05:17:07;4.54;;;0.92;;
60641;SDS011;46837;52.446;-1.930;2024-02-21T05:18:07;5.30;;;0.86;;
60641;SDS011;46837;52.446;-1.930;2024-02-21T05:19:07;8.48;;;2.92;;
60641;SDS011;46837;52.446;-1.930;2024-02-21T05:20:07;10.00;;;1.44;;
60641;SDS011;46837;52.446;-1.930;2024-02-21T05:21:07;3.84;;;1.26;;
60641;SDS011;46837;52.446;-1.930;2024-02-21T05:22:07;10.18;;;1.96;;
60641;SDS011;46837;52.446;-1.930;2024-02-21T05:23:07;3.32;;;1.02;;
60641;SDS011;46837;52.446;-1.930;2024-02-21T05:24:07;9.68;;;1.54;;
60641;SDS011;46837;52.446;-1.930;2024-02-21T05:25:07;5.54;;;1.00;;
60641;SDS011;46837;52.446;-1.930;2024-02-21T05:26:07;6.12;;;1.94;;
60641;SDS011;46837;52.446;-1.930;2024-02-21T05:27:07;7.44;;;1.44;;
60641;SDS011;46837;52.446;-1.930;2024-02-21T05:28:07;4.02;;;1.20;;
60641;SDS011;46837;52.446;-1.930;2024-02-21T05:29:07;10.02;;;2.70;;
60641;SDS011;46837;52.446;-1.930;2024-02-21T05:30:07;5.92;;;1.08;;
60641;SDS011;46837;52.446;-1.930;2024-02-21T05:31:07;6.32;;;1.22;;
60641;SDS011;46837;52.446;-1.930;2024-02-21T05:32:07;7.66;;;1.26;;
60641;SDS011;46837;52.446;-1.930;2024-02-21T05:33:07;5.86;;;1.04;;
60641;SDS011;46837;52.446;-1.930;2024-02-21T05:34:07;5.34;;;1.18;;
60641;SDS011;46837;52.446;-1.930;2024-02-21T05:35:07;5.92;;;1.20;;
60641;SDS011;46837;52.446;-1.930;2024-02-21T05:36:07;2.94;;;0.96;;
60641;SDS011;46837;52.446;-1.930;2024-02-21T05:37:07;7.22;;;1.26;;
60641;SDS011;46837;52.446;-1.930;2024-02-21T05:38:11;2.86;;;1.14;;
60641;SDS011;46837;52.446;-1.930;2024-02-21T05:39:07;5.18;;;1.64;;
60641;SDS011;46837;52.446;-1.930;2024-02-21T05:40:07;4.08;;;1.28;;
60641;SDS011;46837;52.446;-1.930;2024-02-21T05:41:07;4.34;;;0.90;;
60641;SDS011;46837;52.446;-1.930;2024-02-21T05:42:07;5.68;;;1.40;;
60641;SDS011;46837;52.446;-1.930;2024-02-21T05:43:07;5.62;;;1.42;;
60641;SDS011;46837;52.446;-1.930;2024-02-21T05:44:07;7.00;;;1.38;;
60641;SDS011;46837;52.446;-1.930;2024-02-21T05:45:07;5.08;;;1.22;;
60641;SDS011;46837;52.446;-1.930;2024-02-21T05:46:07;5.66;;;2.08;;
60641;SDS011;46837;52.446;-1.930;2024-02-21T05:47:10;5.72;;;1.50;;
60641;SDS011;46837;52.446;-1.930;2024-02-21T05:48:07;7.18;;;1.66;;
60641;SDS011;46837;52.446;-1.930;2024-02-21T05:49:07;7.72;;;1.82;;
60641;SDS011;46837;52.446;-1.930;2024-02-21T05:50:07;6.10;;;1.76;;
60641;SDS011;46837;52.446;-1.930;2024-02-21T05:51:07;6.40;;;2.22;;
60641;SDS011;46837;52.446;-1.930;2024-02-21T05:52:07;8.32;;;1.60;;
60641;SDS011;46837;52.446;-1.930;2024-02-21T05:53:07;2.62;;;1.40;;
60641;SDS011;46837;52.446;-1.930;2024-02-21T05:54:07;8.76;;;1.58;;
60641;SDS011;46837;52.446;-1.930;2024-02-21T05:55:07;5.12;;;1.72;;
60641;SDS011;46837;52.446;-1.930;2024-02-21T05:56:10;11.46;;;2.02;;